sensor_id;sensor_type;location;lat;lon;timestamp;P1;durP1;ratioP1;P2;durP2;ratioP2
6791;SDS011;3433;48.730;9.108;2023-04-21T00:01:46;25.60;;;15.93;;
6791;SDS011;3433;48.730;9.108;2023-04-21T00:04:13;27.07;;;15.97;;
6791;SDS011;3433;48.730;9.108;2023-04-21T00:06:41;25.67;;;15.23;;
6791;SDS011;3433;48.730;9.108;2023-04-21T00:09:09;23.90;;;15.70;;
6791;SDS011;3433;48.730;9.108;2023-04-21T00:11:36;22.20;;;14.40;;
6791;SDS011;3433;48.730;9.108;2023-04-21T00:14:04;23.20;;;15.10;;
6791;SDS011;3433;48.730;9.108;2023-04-21T00:16:31;24.10;;;15.93;;
6791;SDS011;3433;48.730;9.108;2023-04-21T00:18:58;27.73;;;15.83;;
6791;SDS011;3433;48.730;9.108;2023-04-21T00:21:26;24.93;;;16.23;;
6791;SDS011;3433;48.730;9.108;2023-04-21T00:23:53;23.70;;;15.27;;
6791;SDS011;3433;48.730;9.108;2023-04-21T00:26:20;24.10;;;14.70;;
6791;SDS011;3433;48.730;9.108;2023-04-21T00:28:50;22.87;;;14.63;;
6791;SDS011;3433;48.730;9.108;2023-04-21T00:31:18;23.20;;;14.50;;
6791;SDS011;3433;48.730;9.108;2023-04-21T00:33:45;18.47;;;13.30;;
6791;SDS011;3433;48.730;9.108;2023-04-21T00:36:12;22.00;;;14.23;;
6791;SDS011;3433;48.730;9.108;2023-04-21T00:38:39;25.33;;;15.00;;
6791;SDS011;3433;48.730;9.108;2023-04-21T00:41:06;26.10;;;15.27;;
6791;SDS011;3433;48.730;9.108;2023-04-21T00:43:33;26.13;;;16.83;;
6791;SDS011;3433;48.730;9.108;2023-04-21T00:46:00;23.93;;;15.63;;
6791;SDS011;3433;48.730;9.108;2023-04-21T00:48:29;24.20;;;15.27;;
6791;SDS011;3433;48.730;9.108;2023-04-21T00:50:55;23.87;;;15.73;;
6791;SDS011;3433;48.730;9.108;2023-04-21T00:53:22;25.87;;;15.83;;
6791;SDS011;3433;48.730;9.108;2023-04-21T00:55:49;26.30;;;16.47;;
6791;SDS011;3433;48.730;9.108;2023-04-21T00:58:16;21.93;;;14.13;;
6791;SDS011;3433;48.730;9.108;2023-04-21T01:00:43;24.60;;;15.80;;
6791;SDS011;3433;48.730;9.108;2023-04-21T01:03:10;21.53;;;14.40;;
6791;SDS011;3433;48.730;9.108;2023-04-21T01:05:39;24.87;;;14.47;;
6791;SDS011;3433;48.730;9.108;2023-04-21T01:08:06;23.20;;;15.50;;
6791;SDS011;3433;48.730;9.108;2023-04-21T01:10:33;23.90;;;16.00;;
6791;SDS011;3433;48.730;9.108;2023-04-21T01:13:00;25.17;;;15.40;;
6791;SDS011;3433;48.730;9.108;2023-04-21T01:15:27;23.40;;;13.03;;
6791;SDS011;3433;48.730;9.108;2023-04-21T01:17:55;26.70;;;15.73;;
6791;SDS011;3433;48.730;9.108;2023-04-21T01:20:22;24.80;;;14.30;;
6791;SDS011;3433;48.730;9.108;2023-04-21T01:22:54;22.77;;;13.07;;
6791;SDS011;3433;48.730;9.108;2023-04-21T01:25:20;20.87;;;13.90;;
6791;SDS011;3433;48.730;9.108;2023-04-21T01:27:52;20.90;;;13.60;;
6791;SDS011;3433;48.730;9.108;2023-04-21T01:30:19;23.13;;;13.63;;
6791;SDS011;3433;48.730;9.108;2023-04-21T01:32:46;22.90;;;12.07;;
6791;SDS011;3433;48.730;9.108;2023-04-21T01:35:13;19.90;;;13.57;;
6791;SDS011;3433;48.730;9.108;2023-04-21T01:37:40;23.93;;;13.53;;
6791;SDS011;3433;48.730;9.108;2023-04-21T01:40:09;20.17;;;13.03;;
6791;SDS011;3433;48.730;9.108;2023-04-21T01:42:37;20.83;;;12.40;;
6791;SDS011;3433;48.730;9.108;2023-04-21T01:45:07;19.33;;;11.80;;
6791;SDS011;3433;48.730;9.108;2023-04-21T01:47:34;19.47;;;12.67;;
6791;SDS011;3433;48.730;9.108;2023-04-21T01:50:02;26.33;;;13.87;;
6791;SDS011;3433;48.730;9.108;2023-04-21T01:52:29;18.53;;;12.40;;
6791;SDS011;3433;48.730;9.108;2023-04-21T01:54:56;19.43;;;12.00;;
6791;SDS011;3433;48.730;9.108;2023-04-21T01:57:24;19.57;;;12.37;;
6791;SDS011;3433;48.730;9.108;2023-04-21T01:59:51;19.50;;;11.00;;
6791;SDS011;3433;48.730;9.108;2023-04-21T02:02:18;19.70;;;11.83;;
6791;SDS011;3433;48.730;9.108;2023-04-21T02:04:45;19.30;;;11.80;;
6791;SDS011;3433;48.730;9.108;2023-04-21T02:07:11;14.70;;;10.13;;
6791;SDS011;3433;48.730;9.108;2023-04-21T02:09:38;19.43;;;11.67;;
6791;SDS011;3433;48.730;9.108;2023-04-21T02:12:05;17.37;;;11.37;;
6791;SDS011;3433;48.730;9.108;2023-04-21T02:14:35;15.47;;;9.80;;
6791;SDS011;3433;48.730;9.108;2023-04-21T02:17:02;18.23;;;10.90;;
6791;SDS011;3433;48.730;9.108;2023-04-21T02:19:29;18.10;;;10.63;;
6791;SDS011;3433;48.730;9.108;2023-04-21T02:21:56;18.13;;;10.80;;
6791;SDS011;3433;48.730;9.108;2023-04-21T02:24:23;15.97;;;9.90;;
6791;SDS011;3433;48.730;9.108;2023-04-21T02:26:50;14.90;;;10.20;;
6791;SDS011;3433;48.730;9.108;2023-04-21T02:29:17;15.47;;;9.43;;
6791;SDS011;3433;48.730;9.108;2023-04-21T02:31:45;16.80;;;10.30;;
6791;SDS011;3433;48.730;9.108;2023-04-21T02:34:12;16.60;;;10.60;;
6791;SDS011;3433;48.730;9.108;2023-04-21T02:36:39;18.13;;;10.10;;
6791;SDS011;3433;48.730;9.108;2023-04-21T02:39:06;15.37;;;9.90;;
6791;SDS011;3433;48.730;9.108;2023-04-21T02:41:33;16.30;;;9.97;;
6791;SDS011;3433;48.730;9.108;2023-04-21T02:44:00;15.30;;;9.57;;
6791;SDS011;3433;48.730;9.108;2023-04-21T02:46:26;14.90;;;9.60;;
6791;SDS011;3433;48.730;9.108;2023-04-21T02:48:55;18.23;;;10.60;;
6791;SDS011;3433;48.730;9.108;2023-04-21T02:51:22;15.50;;;9.33;;
6791;SDS011;3433;48.730;9.108;2023-04-21T02:53:49;15.30;;;9.77;;
6791;SDS011;3433;48.730;9.108;2023-04-21T02:56:15;17.50;;;9.60;;
6791;SDS011;3433;48.730;9.108;2023-04-21T02:58:42;13.63;;;9.07;;
6791;SDS011;3433;48.730;9.108;2023-04-21T03:01:09;16.20;;;9.73;;
6791;SDS011;3433;48.730;9.108;2023-04-21T03:03:36;19.27;;;11.30;;
6791;SDS011;3433;48.730;9.108;2023-04-21T03:06:05;18.03;;;10.97;;
6791;SDS011;3433;48.730;9.108;2023-04-21T03:08:32;13.60;;;9.13;;
6791;SDS011;3433;48.730;9.108;2023-04-21T03:10:59;15.63;;;10.50;;
6791;SDS011;3433;48.730;9.108;2023-04-21T03:13:26;15.97;;;9.50;;
6791;SDS011;3433;48.730;9.108;2023-04-21T03:15:53;15.30;;;9.00;;
6791;SDS011;3433;48.730;9.108;2023-04-21T03:18:21;17.53;;;10.00;;
6791;SDS011;3433;48.730;9.108;2023-04-21T03:20:51;15.20;;;9.70;;
6791;SDS011;3433;48.730;9.108;2023-04-21T03:23:19;17.20;;;10.30;;
6791;SDS011;3433;48.730;9.108;2023-04-21T03:25:46;18.37;;;10.80;;
6791;SDS011;3433;48.730;9.108;2023-04-21T03:28:13;15.60;;;9.93;;
6791;SDS011;3433;48.730;9.108;2023-04-21T03:30:41;15.90;;;9.90;;
6791;SDS011;3433;48.730;9.108;2023-04-21T03:33:08;15.60;;;9.67;;
6791;SDS011;3433;48.730;9.108;2023-04-21T03:35:34;15.00;;;9.43;;
6791;SDS011;3433;48.730;9.108;2023-04-21T03:38:01;16.33;;;10.30;;
6791;SDS011;3433;48.730;9.108;2023-04-21T03:40:30;15.70;;;9.43;;
6791;SDS011;3433;48.730;9.108;2023-04-21T03:42:57;17.30;;;9.90;;
6791;SDS011;3433;48.730;9.108;2023-04-21T03:45:24;14.80;;;10.57;;
6791;SDS011;3433;48.730;9.108;2023-04-21T03:47:52;16.00;;;10.20;;
6791;SDS011;3433;48.730;9.108;2023-04-21T03:50:20;16.43;;;9.80;;
6791;SDS011;3433;48.730;9.108;2023-04-21T03:52:50;14.37;;;9.50;;
6791;SDS011;3433;48.730;9.108;2023-04-21T03:55:17;16.80;;;10.47;;
6791;SDS011;3433;48.730;9.108;2023-04-21T03:57:46;16.30;;;9.70;;
6791;SDS011;3433;48.730;9.108;2023-04-21T04:00:13;16.50;;;9.87;;
6791;SDS011;3433;48.730;9.108;2023-04-21T04:02:40;14.87;;;9.70;;
6791;SDS011;3433;48.730;9.108;2023-04-21T04:05:07;16.90;;;9.17;;
6791;SDS011;3433;48.730;9.108;2023-04-21T04:07:34;14.43;;;9.77;;
6791;SDS011;3433;48.730;9.108;2023-04-21T04:10:01;15.47;;;9.00;;
6791;SDS011;3433;48.730;9.108;2023-04-21T04:12:28;14.10;;;9.17;;
6791;SDS011;3433;48.730;9.108;2023-04-21T04:14:57;14.63;;;9.33;;
6791;SDS011;3433;48.730;9.108;2023-04-21T04:17:24;16.57;;;9.43;;
6791;SDS011;3433;48.730;9.108;2023-04-21T04:19:51;16.13;;;8.83;;
6791;SDS011;3433;48.730;9.108;2023-04-21T04:22:17;17.90;;;10.10;;
6791;SDS011;3433;48.730;9.108;2023-04-21T04:24:45;16.10;;;9.77;;
6791;SDS011;3433;48.730;9.108;2023-04-21T04:27:12;21.83;;;10.33;;
6791;SDS011;3433;48.730;9.108;2023-04-21T04:29:39;15.83;;;10.30;;
6791;SDS011;3433;48.730;9.108;2023-04-21T04:32:08;14.63;;;9.53;;
6791;SDS011;3433;48.730;9.108;2023-04-21T04:34:35;13.93;;;9.50;;
6791;SDS011;3433;48.730;9.108;2023-04-21T04:37:02;16.80;;;9.53;;
6791;SDS011;3433;48.730;9.108;2023-04-21T04:39:30;12.70;;;8.60;;
6791;SDS011;3433;48.730;9.108;2023-04-21T04:41:57;13.53;;;9.00;;
6791;SDS011;3433;48.730;9.108;2023-04-21T04:44:25;14.90;;;9.30;;
6791;SDS011;3433;48.730;9.108;2023-04-21T04:46:52;14.47;;;8.50;;
6791;SDS011;3433;48.730;9.108;2023-04-21T04:49:25;15.80;;;9.97;;
6791;SDS011;3433;48.730;9.108;2023-04-21T04:51:52;16.40;;;9.93;;
6791;SDS011;3433;48.730;9.108;2023-04-21T04:54:19;18.43;;;10.37;;
6791;SDS011;3433;48.730;9.108;2023-04-21T04:56:46;15.37;;;10.40;;
6791;SDS011;3433;48.730;9.108;2023-04-21T04:59:12;17.43;;;10.50;;
6791;SDS011;3433;48.730;9.108;2023-04-21T05:01:40;16.87;;;10.33;;
6791;SDS011;3433;48.730;9.108;2023-04-21T05:04:06;15.57;;;9.40;;
6791;SDS011;3433;48.730;9.108;2023-04-21T05:06:35;17.87;;;10.90;;
6791;SDS011;3433;48.730;9.108;2023-04-21T05:09:02;19.20;;;11.60;;
6791;SDS011;3433;48.730;9.108;2023-04-21T05:11:29;17.17;;;10.53;;
6791;SDS011;3433;48.730;9.108;2023-04-21T05:13:56;18.43;;;10.80;;
6791;SDS011;3433;48.730;9.108;2023-04-21T05:16:23;17.70;;;11.40;;
6791;SDS011;3433;48.730;9.108;2023-04-21T05:18:50;28.57;;;15.60;;
6791;SDS011;3433;48.730;9.108;2023-04-21T05:21:21;33.77;;;16.73;;
6791;SDS011;3433;48.730;9.108;2023-04-21T05:23:53;28.80;;;17.03;;
6791;SDS011;3433;48.730;9.108;2023-04-21T05:26:20;30.83;;;17.73;;
6791;SDS011;3433;48.730;9.108;2023-04-21T05:28:46;28.60;;;17.40;;
6791;SDS011;3433;48.730;9.108;2023-04-21T05:31:13;35.57;;;17.73;;
6791;SDS011;3433;48.730;9.108;2023-04-21T05:33:40;28.60;;;17.60;;
6791;SDS011;3433;48.730;9.108;2023-04-21T05:36:07;32.97;;;19.30;;
6791;SDS011;3433;48.730;9.108;2023-04-21T05:38:37;31.13;;;17.73;;
6791;SDS011;3433;48.730;9.108;2023-04-21T05:41:24;31.37;;;17.70;;
6791;SDS011;3433;48.730;9.108;2023-04-21T05:43:50;29.83;;;16.90;;
6791;SDS011;3433;48.730;9.108;2023-04-21T05:46:17;33.23;;;18.37;;
6791;SDS011;3433;48.730;9.108;2023-04-21T05:48:45;27.23;;;16.47;;
6791;SDS011;3433;48.730;9.108;2023-04-21T05:51:13;30.30;;;18.10;;
6791;SDS011;3433;48.730;9.108;2023-04-21T05:53:40;29.07;;;17.00;;
6791;SDS011;3433;48.730;9.108;2023-04-21T05:56:08;29.50;;;17.70;;
6791;SDS011;3433;48.730;9.108;2023-04-21T05:58:37;31.10;;;17.50;;
6791;SDS011;3433;48.730;9.108;2023-04-21T06:01:05;38.57;;;18.27;;
6791;SDS011;3433;48.730;9.108;2023-04-21T06:03:32;36.07;;;18.43;;
6791;SDS011;3433;48.730;9.108;2023-04-21T06:05:59;34.90;;;18.30;;
6791;SDS011;3433;48.730;9.108;2023-04-21T06:08:27;33.57;;;18.63;;
6791;SDS011;3433;48.730;9.108;2023-04-21T06:10:54;34.70;;;18.90;;
6791;SDS011;3433;48.730;9.108;2023-04-21T06:13:21;37.10;;;20.13;;
6791;SDS011;3433;48.730;9.108;2023-04-21T06:15:50;36.77;;;20.30;;
6791;SDS011;3433;48.730;9.108;2023-04-21T06:18:17;32.20;;;19.60;;
6791;SDS011;3433;48.730;9.108;2023-04-21T06:20:48;31.67;;;19.03;;
6791;SDS011;3433;48.730;9.108;2023-04-21T06:23:15;35.30;;;20.17;;
6791;SDS011;3433;48.730;9.108;2023-04-21T06:25:42;36.27;;;20.53;;
6791;SDS011;3433;48.730;9.108;2023-04-21T06:28:09;40.20;;;20.10;;
6791;SDS011;3433;48.730;9.108;2023-04-21T06:30:36;36.10;;;19.77;;
6791;SDS011;3433;48.730;9.108;2023-04-21T06:33:04;34.97;;;19.77;;
6791;SDS011;3433;48.730;9.108;2023-04-21T06:35:31;35.33;;;19.87;;
6791;SDS011;3433;48.730;9.108;2023-04-21T06:37:58;37.37;;;19.57;;
6791;SDS011;3433;48.730;9.108;2023-04-21T06:40:25;34.83;;;19.27;;
6791;SDS011;3433;48.730;9.108;2023-04-21T06:42:52;32.33;;;19.90;;
6791;SDS011;3433;48.730;9.108;2023-04-21T06:45:19;32.57;;;19.83;;
6791;SDS011;3433;48.730;9.108;2023-04-21T06:47:46;31.90;;;17.93;;
6791;SDS011;3433;48.730;9.108;2023-04-21T06:50:14;33.57;;;18.93;;
6791;SDS011;3433;48.730;9.108;2023-04-21T06:52:41;34.30;;;20.03;;
6791;SDS011;3433;48.730;9.108;2023-04-21T06:55:08;32.77;;;19.10;;
6791;SDS011;3433;48.730;9.108;2023-04-21T06:57:35;32.30;;;18.30;;
6791;SDS011;3433;48.730;9.108;2023-04-21T07:00:02;33.17;;;17.83;;
6791;SDS011;3433;48.730;9.108;2023-04-21T07:02:30;32.63;;;18.20;;
6791;SDS011;3433;48.730;9.108;2023-04-21T07:04:57;33.27;;;19.40;;
6791;SDS011;3433;48.730;9.108;2023-04-21T07:07:26;36.63;;;19.63;;
6791;SDS011;3433;48.730;9.108;2023-04-21T07:09:53;36.27;;;19.80;;
6791;SDS011;3433;48.730;9.108;2023-04-21T07:12:19;32.67;;;18.87;;
6791;SDS011;3433;48.730;9.108;2023-04-21T07:14:46;31.73;;;19.53;;
6791;SDS011;3433;48.730;9.108;2023-04-21T07:17:13;35.00;;;19.03;;
6791;SDS011;3433;48.730;9.108;2023-04-21T07:19:40;30.17;;;19.33;;
6791;SDS011;3433;48.730;9.108;2023-04-21T07:22:07;28.67;;;16.50;;
6791;SDS011;3433;48.730;9.108;2023-04-21T07:24:35;33.93;;;18.00;;
6791;SDS011;3433;48.730;9.108;2023-04-21T07:27:04;27.17;;;16.67;;
6791;SDS011;3433;48.730;9.108;2023-04-21T07:29:31;25.80;;;16.53;;
6791;SDS011;3433;48.730;9.108;2023-04-21T07:31:58;28.70;;;17.20;;
6791;SDS011;3433;48.730;9.108;2023-04-21T07:34:25;26.70;;;16.30;;
6791;SDS011;3433;48.730;9.108;2023-04-21T07:36:55;25.33;;;15.60;;
6791;SDS011;3433;48.730;9.108;2023-04-21T07:39:22;29.97;;;17.80;;
6791;SDS011;3433;48.730;9.108;2023-04-21T07:41:51;30.93;;;18.37;;
6791;SDS011;3433;48.730;9.108;2023-04-21T07:44:19;27.60;;;16.50;;
6791;SDS011;3433;48.730;9.108;2023-04-21T07:46:46;29.97;;;17.80;;
6791;SDS011;3433;48.730;9.108;2023-04-21T07:49:13;29.60;;;17.33;;
6791;SDS011;3433;48.730;9.108;2023-04-21T07:51:40;26.03;;;16.37;;
6791;SDS011;3433;48.730;9.108;2023-04-21T07:54:07;25.10;;;15.50;;
6791;SDS011;3433;48.730;9.108;2023-04-21T07:56:34;28.20;;;16.50;;
6791;SDS011;3433;48.730;9.108;2023-04-21T07:59:03;23.60;;;15.40;;
6791;SDS011;3433;48.730;9.108;2023-04-21T08:01:30;21.60;;;13.53;;
6791;SDS011;3433;48.730;9.108;2023-04-21T08:03:57;26.03;;;15.57;;
6791;SDS011;3433;48.730;9.108;2023-04-21T08:06:23;25.40;;;15.90;;
6791;SDS011;3433;48.730;9.108;2023-04-21T08:08:51;22.50;;;14.07;;
6791;SDS011;3433;48.730;9.108;2023-04-21T08:11:19;20.93;;;13.27;;
6791;SDS011;3433;48.730;9.108;2023-04-21T08:13:48;22.77;;;13.20;;
6791;SDS011;3433;48.730;9.108;2023-04-21T08:16:17;23.33;;;13.87;;
6791;SDS011;3433;48.730;9.108;2023-04-21T08:18:43;19.17;;;12.40;;
6791;SDS011;3433;48.730;9.108;2023-04-21T08:21:10;19.07;;;12.30;;
6791;SDS011;3433;48.730;9.108;2023-04-21T08:23:38;19.50;;;11.70;;
6791;SDS011;3433;48.730;9.108;2023-04-21T08:26:05;20.70;;;12.30;;
6791;SDS011;3433;48.730;9.108;2023-04-21T08:28:32;19.80;;;12.10;;
6791;SDS011;3433;48.730;9.108;2023-04-21T08:30:59;14.90;;;9.63;;
6791;SDS011;3433;48.730;9.108;2023-04-21T08:33:27;17.53;;;11.73;;
6791;SDS011;3433;48.730;9.108;2023-04-21T08:35:54;14.60;;;10.57;;
6791;SDS011;3433;48.730;9.108;2023-04-21T08:38:21;14.13;;;9.30;;
6791;SDS011;3433;48.730;9.108;2023-04-21T08:40:51;13.57;;;9.37;;
6791;SDS011;3433;48.730;9.108;2023-04-21T08:43:19;11.20;;;8.60;;
6791;SDS011;3433;48.730;9.108;2023-04-21T08:45:46;16.13;;;9.93;;
6791;SDS011;3433;48.730;9.108;2023-04-21T08:48:13;14.27;;;10.30;;
6791;SDS011;3433;48.730;9.108;2023-04-21T08:50:48;14.90;;;9.83;;
6791;SDS011;3433;48.730;9.108;2023-04-21T08:53:15;11.47;;;8.77;;
6791;SDS011;3433;48.730;9.108;2023-04-21T08:55:43;12.90;;;8.90;;
6791;SDS011;3433;48.730;9.108;2023-04-21T08:58:11;13.43;;;8.67;;
6791;SDS011;3433;48.730;9.108;2023-04-21T09:00:39;13.83;;;9.60;;
6791;SDS011;3433;48.730;9.108;2023-04-21T09:03:06;5.93;;;5.00;;
6791;SDS011;3433;48.730;9.108;2023-04-21T09:05:34;11.17;;;7.80;;
6791;SDS011;3433;48.730;9.108;2023-04-21T09:08:10;10.50;;;6.93;;
6791;SDS011;3433;48.730;9.108;2023-04-21T09:10:43;10.00;;;7.53;;
6791;SDS011;3433;48.730;9.108;2023-04-21T09:13:11;9.40;;;6.70;;
6791;SDS011;3433;48.730;9.108;2023-04-21T09:15:38;8.50;;;6.70;;
6791;SDS011;3433;48.730;9.108;2023-04-21T09:18:09;11.30;;;7.00;;
6791;SDS011;3433;48.730;9.108;2023-04-21T09:20:37;12.03;;;7.70;;
6791;SDS011;3433;48.730;9.108;2023-04-21T09:23:05;10.47;;;6.90;;
6791;SDS011;3433;48.730;9.108;2023-04-21T09:25:33;10.93;;;7.20;;
6791;SDS011;3433;48.730;9.108;2023-04-21T09:28:05;6.33;;;5.50;;
6791;SDS011;3433;48.730;9.108;2023-04-21T09:30:33;8.20;;;6.27;;
6791;SDS011;3433;48.730;9.108;2023-04-21T09:33:01;9.10;;;6.33;;
6791;SDS011;3433;48.730;9.108;2023-04-21T09:35:28;7.87;;;5.87;;
6791;SDS011;3433;48.730;9.108;2023-04-21T09:37:58;5.43;;;4.30;;
6791;SDS011;3433;48.730;9.108;2023-04-21T09:40:27;6.80;;;4.70;;
6791;SDS011;3433;48.730;9.108;2023-04-21T09:42:55;6.90;;;5.80;;
6791;SDS011;3433;48.730;9.108;2023-04-21T09:45:22;7.83;;;5.50;;
6791;SDS011;3433;48.730;9.108;2023-04-21T09:47:53;7.90;;;5.67;;
6791;SDS011;3433;48.730;9.108;2023-04-21T09:50:22;7.73;;;6.03;;
6791;SDS011;3433;48.730;9.108;2023-04-21T09:52:50;7.70;;;6.00;;
6791;SDS011;3433;48.730;9.108;2023-04-21T09:55:18;8.83;;;7.10;;
6791;SDS011;3433;48.730;9.108;2023-04-21T09:57:49;9.97;;;7.33;;
6791;SDS011;3433;48.730;9.108;2023-04-21T10:00:19;6.70;;;6.00;;
6791;SDS011;3433;48.730;9.108;2023-04-21T10:02:50;10.17;;;6.07;;
6791;SDS011;3433;48.730;9.108;2023-04-21T10:05:17;8.80;;;6.43;;
6791;SDS011;3433;48.730;9.108;2023-04-21T10:07:45;9.07;;;6.20;;
6791;SDS011;3433;48.730;9.108;2023-04-21T10:10:18;7.70;;;6.30;;
6791;SDS011;3433;48.730;9.108;2023-04-21T10:12:52;6.93;;;5.93;;
6791;SDS011;3433;48.730;9.108;2023-04-21T10:15:29;9.27;;;7.03;;
6791;SDS011;3433;48.730;9.108;2023-04-21T10:18:12;8.80;;;6.47;;
6791;SDS011;3433;48.730;9.108;2023-04-21T10:20:54;10.27;;;7.73;;
6791;SDS011;3433;48.730;9.108;2023-04-21T10:23:28;12.30;;;6.30;;
6791;SDS011;3433;48.730;9.108;2023-04-21T10:26:00;9.90;;;7.10;;
6791;SDS011;3433;48.730;9.108;2023-04-21T10:28:37;8.90;;;6.27;;
6791;SDS011;3433;48.730;9.108;2023-04-21T10:31:17;10.63;;;6.70;;
6791;SDS011;3433;48.730;9.108;2023-04-21T10:37:12;15.43;;;8.20;;
6791;SDS011;3433;48.730;9.108;2023-04-21T10:39:53;12.03;;;8.60;;
6791;SDS011;3433;48.730;9.108;2023-04-21T10:42:32;9.87;;;7.90;;
6791;SDS011;3433;48.730;9.108;2023-04-21T10:45:08;11.73;;;7.90;;
6791;SDS011;3433;48.730;9.108;2023-04-21T10:47:38;9.87;;;8.50;;
6791;SDS011;3433;48.730;9.108;2023-04-21T10:50:11;9.67;;;7.70;;
6791;SDS011;3433;48.730;9.108;2023-04-21T10:52:42;10.17;;;8.30;;
6791;SDS011;3433;48.730;9.108;2023-04-21T10:55:10;10.43;;;8.40;;
6791;SDS011;3433;48.730;9.108;2023-04-21T10:57:40;12.40;;;8.80;;
6791;SDS011;3433;48.730;9.108;2023-04-21T11:00:09;11.90;;;8.33;;
6791;SDS011;3433;48.730;9.108;2023-04-21T11:02:41;12.53;;;9.90;;
6791;SDS011;3433;48.730;9.108;2023-04-21T11:05:08;11.67;;;9.23;;
6791;SDS011;3433;48.730;9.108;2023-04-21T11:07:35;12.43;;;9.03;;
6791;SDS011;3433;48.730;9.108;2023-04-21T11:10:03;10.53;;;8.50;;
6791;SDS011;3433;48.730;9.108;2023-04-21T11:12:32;11.13;;;8.10;;
6791;SDS011;3433;48.730;9.108;2023-04-21T11:15:02;10.50;;;8.37;;
6791;SDS011;3433;48.730;9.108;2023-04-21T11:17:31;11.37;;;8.00;;
6791;SDS011;3433;48.730;9.108;2023-04-21T11:20:00;10.63;;;8.40;;
6791;SDS011;3433;48.730;9.108;2023-04-21T11:22:30;13.07;;;9.00;;
6791;SDS011;3433;48.730;9.108;2023-04-21T11:24:57;12.57;;;9.50;;
6791;SDS011;3433;48.730;9.108;2023-04-21T11:27:25;12.50;;;10.00;;
6791;SDS011;3433;48.730;9.108;2023-04-21T11:29:53;11.90;;;9.33;;
6791;SDS011;3433;48.730;9.108;2023-04-21T11:32:21;12.07;;;8.87;;
6791;SDS011;3433;48.730;9.108;2023-04-21T11:34:48;11.40;;;9.47;;
6791;SDS011;3433;48.730;9.108;2023-04-21T11:37:23;12.90;;;9.67;;
6791;SDS011;3433;48.730;9.108;2023-04-21T11:39:58;12.53;;;9.97;;
6791;SDS011;3433;48.730;9.108;2023-04-21T11:42:25;12.77;;;9.10;;
6791;SDS011;3433;48.730;9.108;2023-04-21T11:44:53;13.57;;;10.37;;
6791;SDS011;3433;48.730;9.108;2023-04-21T11:47:21;13.63;;;9.47;;
6791;SDS011;3433;48.730;9.108;2023-04-21T11:49:50;11.37;;;8.97;;
6791;SDS011;3433;48.730;9.108;2023-04-21T11:52:25;10.77;;;8.97;;
6791;SDS011;3433;48.730;9.108;2023-04-21T11:54:54;10.80;;;8.90;;
6791;SDS011;3433;48.730;9.108;2023-04-21T11:57:22;12.60;;;9.40;;
6791;SDS011;3433;48.730;9.108;2023-04-21T11:59:50;12.87;;;9.10;;
6791;SDS011;3433;48.730;9.108;2023-04-21T12:02:24;11.13;;;9.13;;
6791;SDS011;3433;48.730;9.108;2023-04-21T12:04:56;11.30;;;9.57;;
6791;SDS011;3433;48.730;9.108;2023-04-21T12:07:32;12.40;;;8.90;;
6791;SDS011;3433;48.730;9.108;2023-04-21T12:10:00;11.30;;;8.97;;
6791;SDS011;3433;48.730;9.108;2023-04-21T12:12:35;11.20;;;8.97;;
6791;SDS011;3433;48.730;9.108;2023-04-21T12:15:03;10.27;;;8.80;;
6791;SDS011;3433;48.730;9.108;2023-04-21T12:17:33;12.33;;;9.07;;
6791;SDS011;3433;48.730;9.108;2023-04-21T12:20:03;10.47;;;8.30;;
6791;SDS011;3433;48.730;9.108;2023-04-21T12:22:33;11.10;;;8.57;;
6791;SDS011;3433;48.730;9.108;2023-04-21T12:25:00;10.73;;;6.83;;
6791;SDS011;3433;48.730;9.108;2023-04-21T12:27:27;7.73;;;6.30;;
6791;SDS011;3433;48.730;9.108;2023-04-21T12:29:55;7.00;;;5.83;;
6791;SDS011;3433;48.730;9.108;2023-04-21T12:32:22;6.63;;;5.93;;
6791;SDS011;3433;48.730;9.108;2023-04-21T12:34:49;7.93;;;6.70;;
6791;SDS011;3433;48.730;9.108;2023-04-21T12:37:16;6.83;;;6.03;;
6791;SDS011;3433;48.730;9.108;2023-04-21T12:39:45;7.17;;;6.03;;
6791;SDS011;3433;48.730;9.108;2023-04-21T12:42:12;6.07;;;5.10;;
6791;SDS011;3433;48.730;9.108;2023-04-21T12:44:39;6.00;;;5.30;;
6791;SDS011;3433;48.730;9.108;2023-04-21T12:47:06;5.17;;;4.60;;
6791;SDS011;3433;48.730;9.108;2023-04-21T12:49:33;7.83;;;5.50;;
6791;SDS011;3433;48.730;9.108;2023-04-21T12:52:00;5.90;;;5.30;;
6791;SDS011;3433;48.730;9.108;2023-04-21T12:54:29;5.20;;;4.40;;
6791;SDS011;3433;48.730;9.108;2023-04-21T12:56:57;6.97;;;6.27;;
6791;SDS011;3433;48.730;9.108;2023-04-21T12:59:24;6.87;;;5.17;;
6791;SDS011;3433;48.730;9.108;2023-04-21T13:01:51;6.90;;;4.70;;
6791;SDS011;3433;48.730;9.108;2023-04-21T13:04:18;6.30;;;5.20;;
6791;SDS011;3433;48.730;9.108;2023-04-21T13:06:46;6.73;;;5.40;;
6791;SDS011;3433;48.730;9.108;2023-04-21T13:09:13;6.47;;;4.90;;
6791;SDS011;3433;48.730;9.108;2023-04-21T13:11:40;6.80;;;5.23;;
6791;SDS011;3433;48.730;9.108;2023-04-21T13:14:08;6.60;;;5.70;;
6791;SDS011;3433;48.730;9.108;2023-04-21T13:16:35;6.83;;;6.13;;
6791;SDS011;3433;48.730;9.108;2023-04-21T13:19:02;5.53;;;4.50;;
6791;SDS011;3433;48.730;9.108;2023-04-21T13:21:29;4.10;;;3.70;;
6791;SDS011;3433;48.730;9.108;2023-04-21T13:23:56;6.40;;;5.50;;
6791;SDS011;3433;48.730;9.108;2023-04-21T13:26:23;7.00;;;5.13;;
6791;SDS011;3433;48.730;9.108;2023-04-21T13:28:53;6.87;;;5.17;;
6791;SDS011;3433;48.730;9.108;2023-04-21T13:31:22;7.43;;;4.93;;
6791;SDS011;3433;48.730;9.108;2023-04-21T13:33:49;4.77;;;4.27;;
6791;SDS011;3433;48.730;9.108;2023-04-21T13:36:15;5.73;;;4.30;;
6791;SDS011;3433;48.730;9.108;2023-04-21T13:38:42;5.20;;;4.70;;
6791;SDS011;3433;48.730;9.108;2023-04-21T13:41:09;4.60;;;4.20;;
6791;SDS011;3433;48.730;9.108;2023-04-21T13:43:36;5.73;;;4.70;;
6791;SDS011;3433;48.730;9.108;2023-04-21T13:46:03;5.00;;;4.50;;
6791;SDS011;3433;48.730;9.108;2023-04-21T13:48:32;4.60;;;4.20;;
6791;SDS011;3433;48.730;9.108;2023-04-21T13:50:59;4.07;;;3.67;;
6791;SDS011;3433;48.730;9.108;2023-04-21T13:53:25;4.17;;;3.83;;
6791;SDS011;3433;48.730;9.108;2023-04-21T13:55:52;3.80;;;3.40;;
6791;SDS011;3433;48.730;9.108;2023-04-21T13:58:21;6.13;;;3.60;;
6791;SDS011;3433;48.730;9.108;2023-04-21T14:00:48;4.37;;;3.97;;
6791;SDS011;3433;48.730;9.108;2023-04-21T14:03:14;4.50;;;3.70;;
6791;SDS011;3433;48.730;9.108;2023-04-21T14:05:43;9.13;;;3.47;;
6791;SDS011;3433;48.730;9.108;2023-04-21T14:08:10;3.80;;;3.50;;
6791;SDS011;3433;48.730;9.108;2023-04-21T14:10:37;3.87;;;3.57;;
6791;SDS011;3433;48.730;9.108;2023-04-21T14:13:03;4.13;;;3.07;;
6791;SDS011;3433;48.730;9.108;2023-04-21T14:15:30;4.53;;;3.53;;
6791;SDS011;3433;48.730;9.108;2023-04-21T14:17:57;4.03;;;3.63;;
6791;SDS011;3433;48.730;9.108;2023-04-21T14:20:24;3.87;;;3.53;;
6791;SDS011;3433;48.730;9.108;2023-04-21T14:22:53;3.17;;;2.80;;
6791;SDS011;3433;48.730;9.108;2023-04-21T14:25:20;3.70;;;3.40;;
6791;SDS011;3433;48.730;9.108;2023-04-21T14:27:46;3.30;;;3.00;;
6791;SDS011;3433;48.730;9.108;2023-04-21T14:30:13;3.40;;;3.07;;
6791;SDS011;3433;48.730;9.108;2023-04-21T14:32:40;3.67;;;3.37;;
6791;SDS011;3433;48.730;9.108;2023-04-21T14:35:09;3.20;;;2.80;;
6791;SDS011;3433;48.730;9.108;2023-04-21T14:37:36;3.57;;;3.27;;
6791;SDS011;3433;48.730;9.108;2023-04-21T14:40:05;3.73;;;3.27;;
6791;SDS011;3433;48.730;9.108;2023-04-21T14:42:32;3.07;;;2.87;;
6791;SDS011;3433;48.730;9.108;2023-04-21T14:44:59;3.77;;;2.90;;
6791;SDS011;3433;48.730;9.108;2023-04-21T14:47:26;3.07;;;2.60;;
6791;SDS011;3433;48.730;9.108;2023-04-21T14:49:53;5.10;;;3.17;;
6791;SDS011;3433;48.730;9.108;2023-04-21T14:52:20;3.30;;;3.00;;
6791;SDS011;3433;48.730;9.108;2023-04-21T14:54:48;2.93;;;2.67;;
6791;SDS011;3433;48.730;9.108;2023-04-21T14:57:16;3.50;;;2.73;;
6791;SDS011;3433;48.730;9.108;2023-04-21T14:59:45;3.63;;;3.10;;
6791;SDS011;3433;48.730;9.108;2023-04-21T15:02:12;3.10;;;2.70;;
6791;SDS011;3433;48.730;9.108;2023-04-21T15:04:39;2.80;;;2.50;;
6791;SDS011;3433;48.730;9.108;2023-04-21T15:07:06;3.23;;;2.93;;